createdAt,value
2022-12-03T00:00:26.625Z,6.70
2022-12-03T00:02:53.084Z,6.30
2022-12-03T00:05:19.514Z,7.05
2022-12-03T00:07:46.100Z,7.38
2022-12-03T00:10:12.869Z,7.13
2022-12-03T00:12:39.239Z,6.20
2022-12-03T00:15:08.691Z,7.35
2022-12-03T00:17:35.117Z,7.00
2022-12-03T00:20:01.626Z,7.22
2022-12-03T00:22:27.956Z,7.18
2022-12-03T00:24:54.642Z,7.65
2022-12-03T00:27:21.254Z,7.95
2022-12-03T00:29:47.683Z,8.52
2022-12-03T00:32:14.123Z,6.60
2022-12-03T00:34:40.486Z,7.93
2022-12-03T00:37:06.872Z,7.85
2022-12-03T00:39:33.208Z,7.47
2022-12-03T00:41:59.567Z,7.85
2022-12-03T00:44:26.037Z,7.28
2022-12-03T00:46:52.404Z,7.43
2022-12-03T00:49:18.798Z,7.30
2022-12-03T00:51:45.224Z,7.45
2022-12-03T00:54:11.797Z,7.97
2022-12-03T00:56:38.136Z,8.43
2022-12-03T00:59:04.451Z,8.38
2022-12-03T01:01:30.900Z,7.85
2022-12-03T01:03:57.468Z,7.72
2022-12-03T01:06:57.900Z,7.40
2022-12-03T01:09:24.226Z,7.13
2022-12-03T01:11:50.572Z,7.22
2022-12-03T01:14:19.549Z,6.43
2022-12-03T01:16:47.295Z,8.30
2022-12-03T01:19:17.495Z,8.20
2022-12-03T01:21:45.936Z,7.85
2022-12-03T01:24:12.600Z,8.05
2022-12-03T01:26:39.094Z,8.35
2022-12-03T01:29:05.783Z,8.25
2022-12-03T01:31:50.604Z,8.85
2022-12-03T01:34:17.188Z,7.70
2022-12-03T01:36:43.553Z,7.63
2022-12-03T01:39:10.171Z,8.93
2022-12-03T01:41:37.099Z,8.25
2022-12-03T01:44:12.636Z,8.90
2022-12-03T01:49:14.249Z,7.95
2022-12-03T01:51:40.619Z,8.05
2022-12-03T01:54:16.623Z,8.57
2022-12-03T01:56:43.423Z,8.68
2022-12-03T01:59:15.527Z,9.40
2022-12-03T02:01:42.150Z,8.85
2022-12-03T02:04:12.773Z,8.80
2022-12-03T02:06:39.752Z,8.93
2022-12-03T02:09:08.654Z,9.02
2022-12-03T02:11:38.698Z,9.52
2022-12-03T02:14:11.787Z,9.52
2022-12-03T02:16:40.945Z,10.35
2022-12-03T02:19:21.218Z,9.77
2022-12-03T02:22:03.532Z,9.73
2022-12-03T02:24:35.563Z,10.52
2022-12-03T02:27:01.928Z,9.90
2022-12-03T02:29:28.316Z,9.73
2022-12-03T02:31:54.835Z,10.23
2022-12-03T02:34:44.606Z,9.38
2022-12-03T02:37:15.403Z,9.65
2022-12-03T02:39:46.304Z,10.13
2022-12-03T02:42:31.822Z,9.43
2022-12-03T02:45:05.140Z,9.57
2022-12-03T02:47:35.239Z,9.68
2022-12-03T02:50:02.477Z,9.50
2022-12-03T02:52:29.266Z,9.45
2022-12-03T02:54:55.992Z,10.18
2022-12-03T02:57:22.641Z,9.60
2022-12-03T02:59:49.070Z,9.07
2022-12-03T03:02:15.548Z,9.32
2022-12-03T03:04:44.448Z,9.38
2022-12-03T03:07:11.319Z,8.75
2022-12-03T03:09:37.798Z,8.90
2022-12-03T03:12:04.578Z,9.15
2022-12-03T03:14:32.542Z,8.38
2022-12-03T03:16:58.966Z,8.50
2022-12-03T03:19:26.413Z,8.57
2022-12-03T03:21:53.681Z,9.10
2022-12-03T03:24:21.611Z,8.90
2022-12-03T03:26:48.795Z,9.07
2022-12-03T03:29:15.563Z,9.30
2022-12-03T03:31:42.955Z,8.73
2022-12-03T03:34:09.925Z,9.20
2022-12-03T03:36:36.725Z,9.93
2022-12-03T03:39:05.533Z,9.48
2022-12-03T03:41:33.317Z,8.50
2022-12-03T03:43:59.896Z,8.65
2022-12-03T03:46:28.371Z,9.63
2022-12-03T03:48:54.747Z,8.25
2022-12-03T03:51:21.585Z,8.02
2022-12-03T03:53:49.895Z,8.80
2022-12-03T03:56:18.902Z,8.55
2022-12-03T03:58:45.360Z,8.75
2022-12-03T04:01:13.833Z,8.05
2022-12-03T04:03:41.117Z,8.63
2022-12-03T04:06:08.530Z,8.07
2022-12-03T04:08:34.954Z,7.60
2022-12-03T04:11:19.717Z,8.82
2022-12-03T04:13:46.082Z,8.05
2022-12-03T04:16:12.473Z,8.13
2022-12-03T04:18:44.703Z,7.35
2022-12-03T04:21:38.546Z,7.47
2022-12-03T04:24:06.494Z,7.60
2022-12-03T04:26:52.015Z,7.32
2022-12-03T04:29:19.386Z,7.32
2022-12-03T04:32:05.212Z,7.70
2022-12-03T04:34:49.932Z,6.43
2022-12-03T04:37:16.721Z,7.38
2022-12-03T04:39:43.070Z,7.30
2022-12-03T04:42:09.477Z,7.30
2022-12-03T04:44:38.503Z,6.43
2022-12-03T04:47:09.406Z,7.28
2022-12-03T04:49:38.711Z,7.07
2022-12-03T04:52:05.462Z,6.72
2022-12-03T04:54:31.812Z,7.60
2022-12-03T04:56:58.273Z,6.78
2022-12-03T04:59:24.674Z,6.68
2022-12-03T05:01:51.086Z,6.30
2022-12-03T05:04:17.554Z,7.00
2022-12-03T05:06:44.400Z,6.40
2022-12-03T05:09:11.993Z,7.63
2022-12-03T05:11:38.617Z,6.68
2022-12-03T05:14:05.460Z,6.88
2022-12-03T05:16:31.989Z,7.00
2022-12-03T05:18:58.399Z,6.72
2022-12-03T05:21:24.767Z,7.57
2022-12-03T05:23:51.122Z,7.28
2022-12-03T05:26:17.459Z,6.30
2022-12-03T05:28:44.191Z,6.65
2022-12-03T05:31:10.890Z,6.85
2022-12-03T05:33:42.482Z,6.70
2022-12-03T05:36:10.786Z,6.75
2022-12-03T05:38:37.163Z,6.40
2022-12-03T05:41:23.822Z,6.40
2022-12-03T05:43:50.187Z,6.50
2022-12-03T05:46:16.625Z,6.78
2022-12-03T05:48:43.027Z,5.93
2022-12-03T05:51:09.373Z,5.97
2022-12-03T05:53:35.920Z,7.13
2022-12-03T05:56:02.241Z,6.55
2022-12-03T05:58:28.629Z,5.95
2022-12-03T06:00:55.246Z,6.38
2022-12-03T06:03:21.676Z,6.15
2022-12-03T06:05:48.099Z,7.20
2022-12-03T06:08:14.532Z,6.10
2022-12-03T06:10:40.961Z,6.32
2022-12-03T06:13:07.258Z,6.13
2022-12-03T06:15:37.446Z,5.88
2022-12-03T06:18:06.678Z,6.68
2022-12-03T06:20:33.053Z,7.07
2022-12-03T06:22:59.427Z,6.25
2022-12-03T06:25:25.813Z,6.65
2022-12-03T06:27:52.142Z,5.53
2022-12-03T06:30:18.513Z,5.43
2022-12-03T06:32:44.814Z,6.95
2022-12-03T06:35:11.375Z,6.70
2022-12-03T06:37:37.686Z,7.13
2022-12-03T06:40:04.391Z,6.72
2022-12-03T06:42:30.709Z,6.80
2022-12-03T06:44:57.285Z,6.28
2022-12-03T06:47:23.778Z,6.80
2022-12-03T06:49:50.147Z,6.22
2022-12-03T06:52:16.503Z,6.97
2022-12-03T06:54:42.861Z,5.93
2022-12-03T06:57:09.177Z,6.65
2022-12-03T06:59:37.437Z,6.88
2022-12-03T07:02:04.650Z,7.07
2022-12-03T07:04:31.044Z,5.93
2022-12-03T07:06:57.481Z,6.00
2022-12-03T07:09:23.850Z,6.93
2022-12-03T07:11:50.165Z,7.30
2022-12-03T07:14:16.483Z,6.28
2022-12-03T07:16:43.687Z,6.97
2022-12-03T07:19:11.129Z,6.38
2022-12-03T07:21:38.026Z,6.38
2022-12-03T07:24:04.663Z,6.18
2022-12-03T07:26:31.103Z,6.50
2022-12-03T07:28:58.214Z,6.88
2022-12-03T07:31:24.819Z,6.47
2022-12-03T07:33:51.324Z,6.38
2022-12-03T07:36:17.761Z,5.93
2022-12-03T07:38:44.603Z,6.28
2022-12-03T07:41:11.019Z,5.80
2022-12-03T07:43:37.366Z,6.40
2022-12-03T07:46:03.707Z,5.85
2022-12-03T07:48:30.026Z,6.85
2022-12-03T07:50:56.458Z,7.40
2022-12-03T07:53:22.844Z,7.28
2022-12-03T07:55:49.211Z,6.82
2022-12-03T07:58:15.542Z,6.65
2022-12-03T08:00:41.968Z,6.20
2022-12-03T08:03:12.283Z,6.40
2022-12-03T08:05:38.657Z,6.72
2022-12-03T08:08:05.337Z,6.20
2022-12-03T08:10:31.929Z,7.30
2022-12-03T08:12:59.962Z,6.45
2022-12-03T08:15:33.658Z,7.30
2022-12-03T08:18:12.277Z,6.80
2022-12-03T08:20:40.853Z,8.10
2022-12-03T08:23:13.459Z,6.97
2022-12-03T08:25:40.003Z,6.57
2022-12-03T08:28:15.990Z,8.15
2022-12-03T08:30:43.736Z,6.70
2022-12-03T08:33:30.952Z,7.03
2022-12-03T08:35:57.276Z,6.93
2022-12-03T08:38:24.882Z,6.82
2022-12-03T08:40:55.120Z,6.53
2022-12-03T08:43:27.834Z,7.40
2022-12-03T08:45:55.939Z,7.43
2022-12-03T08:48:32.621Z,7.05
2022-12-03T08:51:18.888Z,6.75
2022-12-03T08:53:48.925Z,8.15
2022-12-03T08:56:24.303Z,6.97
2022-12-03T08:59:15.481Z,7.70
2022-12-03T09:01:44.324Z,7.53
2022-12-03T09:04:21.384Z,6.72
2022-12-03T09:06:47.942Z,7.35
2022-12-03T09:09:15.631Z,7.50
2022-12-03T09:11:43.172Z,7.80
2022-12-03T09:14:15.120Z,7.35
2022-12-03T09:16:44.713Z,7.50
2022-12-03T09:19:11.180Z,6.65
2022-12-03T09:21:37.522Z,7.30
2022-12-03T09:24:03.943Z,7.53
2022-12-03T09:26:30.307Z,7.47
2022-12-03T09:28:56.643Z,7.57
2022-12-03T09:31:22.974Z,7.40
2022-12-03T09:33:49.445Z,7.50
2022-12-03T09:36:15.815Z,7.22
2022-12-03T09:38:46.238Z,7.82
2022-12-03T09:41:14.446Z,7.93
2022-12-03T09:44:03.355Z,7.85
2022-12-03T09:46:27.452Z,9.20
2022-12-03T09:48:55.353Z,8.63
2022-12-03T09:51:21.678Z,8.50
2022-12-03T09:53:48.385Z,8.93
2022-12-03T09:56:23.188Z,9.13
2022-12-03T09:58:50.454Z,8.70
2022-12-03T10:01:17.523Z,8.57
2022-12-03T10:03:47.689Z,8.02
2022-12-03T10:06:17.871Z,8.63
2022-12-03T10:08:48.246Z,8.05
2022-12-03T10:11:15.738Z,9.20
2022-12-03T10:13:42.310Z,9.07
2022-12-03T10:16:15.284Z,8.57
2022-12-03T10:18:48.337Z,8.98
2022-12-03T10:21:24.232Z,9.50
2022-12-03T10:24:39.750Z,9.63
2022-12-03T10:27:30.085Z,9.48
2022-12-03T10:29:59.512Z,8.80
2022-12-03T10:32:44.341Z,9.13
2022-12-03T10:35:13.898Z,9.10
2022-12-03T10:37:59.180Z,8.73
2022-12-03T10:40:31.173Z,9.30
2022-12-03T10:43:35.675Z,9.23
2022-12-03T10:46:04.039Z,9.95
2022-12-03T10:48:30.942Z,9.25
2022-12-03T10:51:04.754Z,9.15
2022-12-03T10:53:33.802Z,9.00
2022-12-03T10:56:03.100Z,10.55
2022-12-03T10:58:33.902Z,9.18
2022-12-03T11:01:03.382Z,9.15
2022-12-03T11:03:34.589Z,9.57
2022-12-03T11:06:02.314Z,9.50
2022-12-03T11:08:35.232Z,9.68
2022-12-03T11:11:03.343Z,9.00
2022-12-03T11:13:32.360Z,10.02
2022-12-03T11:16:00.656Z,8.80
2022-12-03T11:18:36.084Z,9.52
2022-12-03T11:21:14.052Z,8.85
2022-12-03T11:23:46.307Z,9.10
2022-12-03T11:26:18.946Z,9.75
2022-12-03T11:28:45.712Z,10.35
2022-12-03T11:31:38.100Z,12.20
2022-12-03T11:34:13.444Z,9.80
2022-12-03T11:37:11.574Z,11.93
2022-12-03T11:39:55.549Z,8.75
2022-12-03T11:42:27.894Z,9.10
2022-12-03T11:45:06.684Z,11.45
2022-12-03T11:47:44.086Z,9.70
2022-12-03T11:50:23.426Z,10.25
2022-12-03T11:52:59.167Z,10.40
2022-12-03T11:55:30.232Z,10.38
2022-12-03T11:57:59.265Z,11.05
2022-12-03T12:00:25.743Z,9.80
2022-12-03T12:02:54.709Z,10.20
2022-12-03T12:05:28.198Z,11.55
2022-12-03T12:07:55.488Z,11.25
2022-12-03T12:10:47.709Z,10.25
2022-12-03T12:13:32.197Z,10.60
2022-12-03T12:16:04.070Z,10.80
2022-12-03T12:18:45.168Z,12.18
2022-12-03T12:21:41.915Z,10.80
2022-12-03T12:24:31.442Z,11.15
2022-12-03T12:27:00.231Z,10.43
2022-12-03T12:29:26.725Z,10.07
2022-12-03T12:32:00.765Z,10.32
2022-12-03T12:34:27.267Z,11.57
2022-12-03T12:36:56.642Z,13.52
2022-12-03T12:39:23.101Z,10.98
2022-12-03T12:41:50.433Z,11.82
2022-12-03T12:44:18.226Z,11.10
2022-12-03T12:46:47.995Z,13.07
2022-12-03T12:49:15.490Z,12.50
2022-12-03T12:51:46.576Z,12.02
2022-12-03T12:54:15.511Z,11.23
2022-12-03T12:56:47.047Z,11.90
2022-12-03T12:59:21.867Z,23.45
2022-12-03T13:01:49.939Z,11.30
2022-12-03T13:04:23.793Z,11.20
2022-12-03T13:06:53.065Z,11.45
2022-12-03T13:09:26.519Z,11.35
2022-12-03T13:12:00.205Z,11.10
2022-12-03T13:14:31.883Z,11.15
2022-12-03T13:17:00.851Z,11.90
2022-12-03T13:19:39.584Z,12.38
2022-12-03T13:24:50.959Z,10.48
2022-12-03T13:27:17.246Z,11.45
2022-12-03T13:29:45.062Z,12.30
2022-12-03T13:32:15.819Z,11.10
2022-12-03T13:34:42.612Z,11.23
2022-12-03T13:37:27.890Z,11.05
2022-12-03T13:39:58.044Z,20.15
2022-12-03T13:42:40.837Z,11.07
2022-12-03T13:45:16.045Z,11.77
2022-12-03T13:47:48.719Z,10.75
2022-12-03T13:50:20.994Z,12.13
2022-12-03T13:52:47.755Z,11.85
2022-12-03T13:55:26.399Z,13.55
2022-12-03T13:57:53.566Z,12.30
2022-12-03T14:00:20.254Z,10.95
2022-12-03T14:02:46.720Z,11.38
2022-12-03T14:05:13.401Z,12.10
2022-12-03T14:07:39.968Z,11.52
2022-12-03T14:10:08.215Z,11.98
2022-12-03T14:12:34.914Z,11.40
2022-12-03T14:15:02.344Z,13.38
2022-12-03T14:17:30.685Z,12.60
2022-12-03T14:20:01.308Z,12.65
2022-12-03T14:22:27.866Z,11.73
2022-12-03T14:24:54.392Z,13.05
2022-12-03T14:27:21.951Z,12.82
2022-12-03T14:29:48.402Z,11.93
2022-12-03T14:32:14.850Z,11.93
2022-12-03T14:34:41.250Z,11.95
2022-12-03T14:37:07.647Z,12.52
2022-12-03T14:39:34.001Z,12.55
2022-12-03T14:42:16.427Z,12.00
2022-12-03T14:44:45.776Z,12.15
2022-12-03T14:47:13.413Z,12.07
2022-12-03T14:49:39.922Z,11.30
2022-12-03T14:52:11.362Z,10.88
2022-12-03T14:54:42.686Z,40.30
2022-12-03T14:57:11.519Z,13.85
2022-12-03T14:59:38.862Z,14.05
2022-12-03T15:02:05.234Z,13.63
2022-12-03T15:04:31.619Z,14.35
2022-12-03T15:06:57.931Z,13.27
2022-12-03T15:09:24.237Z,13.93
2022-12-03T15:11:50.579Z,13.05
2022-12-03T15:14:16.974Z,12.30
2022-12-03T15:16:43.398Z,12.73
2022-12-03T15:19:10.028Z,12.75
2022-12-03T15:21:36.350Z,11.93
2022-12-03T15:24:03.155Z,11.70
2022-12-03T15:26:29.910Z,12.75
2022-12-03T15:28:56.306Z,13.30
2022-12-03T15:31:22.710Z,12.82
2022-12-03T15:33:49.227Z,11.85
2022-12-03T15:36:16.699Z,11.93
2022-12-03T15:38:43.066Z,12.23
2022-12-03T15:41:23.198Z,12.80
2022-12-03T15:43:51.319Z,12.60
2022-12-03T15:46:17.822Z,12.45
2022-12-03T15:48:44.312Z,11.45
2022-12-03T15:51:10.674Z,11.52
2022-12-03T15:53:37.032Z,11.35
2022-12-03T15:56:03.590Z,11.40
2022-12-03T15:58:29.959Z,12.35
2022-12-03T16:00:56.321Z,12.40
2022-12-03T16:03:22.709Z,12.27
2022-12-03T16:05:49.764Z,12.77
2022-12-03T16:08:16.224Z,12.27
2022-12-03T16:10:42.628Z,12.77
2022-12-03T16:13:09.011Z,11.65
2022-12-03T16:15:35.404Z,12.93
2022-12-03T16:18:02.699Z,12.48
2022-12-03T16:20:29.030Z,12.77
2022-12-03T16:22:55.379Z,13.25
2022-12-03T16:25:21.871Z,13.27
2022-12-03T16:27:48.335Z,12.82
2022-12-03T16:30:14.860Z,11.98
2022-12-03T16:32:41.663Z,12.38
2022-12-03T16:35:08.486Z,12.10
2022-12-03T16:37:34.885Z,12.18
2022-12-03T16:40:01.452Z,13.02
2022-12-03T16:42:27.969Z,11.35
2022-12-03T16:45:11.855Z,13.63
2022-12-03T16:47:38.305Z,12.57
2022-12-03T16:50:07.610Z,12.57
2022-12-03T16:52:34.859Z,12.57
2022-12-03T16:55:01.573Z,13.93
2022-12-03T16:57:33.341Z,12.40
2022-12-03T17:00:00.691Z,13.07
2022-12-03T17:02:27.427Z,12.63
2022-12-03T17:04:53.884Z,12.32
2022-12-03T17:07:20.393Z,12.75
2022-12-03T17:09:46.720Z,16.00
2022-12-03T17:12:13.147Z,13.23
2022-12-03T17:14:39.576Z,13.38
2022-12-03T17:17:05.918Z,14.35
2022-12-03T17:19:32.315Z,12.65
2022-12-03T17:21:59.645Z,12.73
2022-12-03T17:24:26.036Z,11.88
2022-12-03T17:26:52.454Z,12.15
2022-12-03T17:29:18.773Z,11.27
2022-12-03T17:31:45.224Z,12.00
2022-12-03T17:34:11.700Z,12.02
2022-12-03T17:36:38.122Z,13.15
2022-12-03T17:39:04.464Z,12.75
2022-12-03T17:41:30.883Z,13.75
2022-12-03T17:43:57.242Z,13.38
2022-12-03T17:46:23.656Z,13.10
2022-12-03T17:48:50.264Z,11.85
2022-12-03T17:51:16.739Z,12.30
2022-12-03T17:53:43.100Z,12.32
2022-12-03T17:56:09.603Z,11.70
2022-12-03T17:58:36.086Z,14.13
2022-12-03T18:01:03.350Z,13.43
2022-12-03T18:03:30.829Z,11.93
2022-12-03T18:05:57.273Z,12.45
2022-12-03T18:08:23.721Z,12.82
2022-12-03T18:10:50.176Z,12.70
2022-12-03T18:13:16.562Z,13.00
2022-12-03T18:15:43.008Z,12.40
2022-12-03T18:18:09.462Z,12.68
2022-12-03T18:20:36.287Z,12.50
2022-12-03T18:23:03.373Z,12.82
2022-12-03T18:25:30.378Z,13.20
2022-12-03T18:27:56.964Z,14.32
2022-12-03T18:30:23.499Z,11.73
2022-12-03T18:32:50.550Z,12.13
2022-12-03T18:35:17.034Z,12.05
2022-12-03T18:37:43.699Z,14.32
2022-12-03T18:40:20.004Z,17.10
2022-12-03T18:42:47.083Z,15.05
2022-12-03T18:45:15.217Z,13.55
2022-12-03T18:47:42.231Z,12.15
2022-12-03T18:50:09.805Z,21.88
2022-12-03T18:52:36.411Z,14.27
2022-12-03T18:55:04.201Z,13.68
2022-12-03T18:57:30.574Z,13.35
2022-12-03T18:59:57.232Z,11.70
2022-12-03T19:02:54.347Z,14.98
2022-12-03T19:05:10.693Z,12.70
2022-12-03T19:07:37.249Z,12.95
2022-12-03T19:10:04.271Z,12.32
2022-12-03T19:12:31.095Z,13.65
2022-12-03T19:14:57.475Z,13.00
2022-12-03T19:17:23.932Z,12.15
2022-12-03T19:19:50.338Z,13.70
2022-12-03T19:22:16.767Z,13.10
2022-12-03T19:24:43.603Z,12.80
2022-12-03T19:27:10.120Z,12.57
2022-12-03T19:29:36.574Z,13.38
2022-12-03T19:32:03.391Z,14.50
2022-12-03T19:34:29.926Z,12.77
2022-12-03T19:36:56.334Z,12.88
2022-12-03T19:39:22.711Z,12.85
2022-12-03T19:41:49.217Z,13.40
2022-12-03T19:44:17.415Z,12.57
2022-12-03T19:46:44.591Z,12.27
2022-12-03T19:49:11.735Z,12.95
2022-12-03T19:51:38.108Z,13.25
2022-12-03T19:54:06.514Z,14.45
2022-12-03T19:56:33.443Z,13.50
2022-12-03T19:58:59.897Z,13.40
2022-12-03T20:01:30.031Z,12.52
2022-12-03T20:03:58.481Z,14.43
2022-12-03T20:06:28.450Z,14.10
2022-12-03T20:09:02.667Z,12.88
2022-12-03T20:11:31.825Z,13.05
2022-12-03T20:14:01.450Z,12.88
2022-12-03T20:16:29.256Z,11.80
2022-12-03T20:18:58.665Z,12.60
2022-12-03T20:21:25.908Z,13.10
2022-12-03T20:23:52.990Z,12.75
2022-12-03T20:26:20.761Z,13.52
2022-12-03T20:28:48.121Z,12.02
2022-12-03T20:31:20.230Z,12.93
2022-12-03T20:33:49.287Z,12.95
2022-12-03T20:36:18.886Z,12.45
2022-12-03T20:38:45.311Z,12.75
2022-12-03T20:41:14.144Z,15.57
2022-12-03T20:43:41.367Z,13.27
2022-12-03T20:46:08.650Z,12.93
2022-12-03T20:48:35.694Z,11.00
2022-12-03T20:51:10.578Z,11.38
2022-12-03T20:53:37.805Z,11.40
2022-12-03T20:56:05.608Z,11.05
2022-12-03T20:58:32.922Z,11.60
2022-12-03T21:01:15.193Z,11.75
2022-12-03T21:03:42.258Z,14.88
2022-12-03T21:06:08.646Z,10.82
2022-12-03T21:08:41.692Z,10.40
2022-12-03T21:11:20.921Z,10.27
2022-12-03T21:13:47.699Z,11.20
2022-12-03T21:16:18.078Z,10.32
2022-12-03T21:18:45.004Z,10.65
2022-12-03T21:21:12.933Z,11.15
2022-12-03T21:23:39.500Z,9.65
2022-12-03T21:26:08.618Z,10.45
2022-12-03T21:28:35.345Z,10.18
2022-12-03T21:31:03.647Z,12.10
2022-12-03T21:33:30.661Z,10.32
2022-12-03T21:35:57.488Z,10.65
2022-12-03T21:38:24.359Z,10.38
2022-12-03T21:40:50.868Z,9.82
2022-12-03T21:43:17.242Z,9.82
2022-12-03T21:45:43.900Z,9.77
2022-12-03T21:48:11.105Z,9.38
2022-12-03T21:50:37.513Z,9.55
2022-12-03T21:53:03.818Z,9.98
2022-12-03T21:55:30.249Z,11.48
2022-12-03T21:57:56.631Z,9.82
2022-12-03T22:00:23.026Z,11.40
2022-12-03T22:02:49.401Z,9.65
2022-12-03T22:05:15.929Z,11.80
2022-12-03T22:07:42.333Z,11.20
2022-12-03T22:10:10.426Z,10.63
2022-12-03T22:12:36.993Z,10.07
2022-12-03T22:15:05.040Z,10.80
2022-12-03T22:17:31.607Z,10.18
2022-12-03T22:19:57.999Z,11.85
2022-12-03T22:22:24.398Z,10.40
2022-12-03T22:24:50.770Z,10.73
2022-12-03T22:27:18.078Z,10.45
2022-12-03T22:29:45.446Z,11.85
2022-12-03T22:32:11.833Z,11.35
2022-12-03T22:34:38.215Z,9.48
2022-12-03T22:37:04.954Z,11.35
2022-12-03T22:39:31.410Z,10.75
2022-12-03T22:41:57.811Z,10.27
2022-12-03T22:44:24.163Z,14.88
2022-12-03T22:46:50.610Z,12.95
2022-12-03T22:49:17.039Z,12.43
2022-12-03T22:51:47.419Z,16.35
2022-12-03T22:54:15.001Z,12.15
2022-12-03T22:56:42.666Z,11.30
2022-12-03T22:59:09.146Z,12.82
2022-12-03T23:01:39.113Z,11.32
2022-12-03T23:04:06.945Z,11.38
2022-12-03T23:06:34.586Z,9.88
2022-12-03T23:09:00.993Z,12.05
2022-12-03T23:11:27.839Z,10.63
2022-12-03T23:13:54.311Z,12.63
2022-12-03T23:16:23.961Z,13.98
2022-12-03T23:18:50.448Z,11.25
2022-12-03T23:21:24.007Z,11.52
2022-12-03T23:23:55.145Z,12.65
2022-12-03T23:26:22.527Z,9.48
2022-12-03T23:28:48.930Z,10.20
2022-12-03T23:31:20.181Z,11.20
2022-12-03T23:33:47.071Z,10.65
2022-12-03T23:36:13.798Z,9.45
2022-12-03T23:38:40.683Z,9.93
2022-12-03T23:41:11.032Z,10.40
2022-12-03T23:43:38.401Z,9.77
2022-12-03T23:46:17.165Z,8.98
2022-12-03T23:48:43.736Z,9.82
2022-12-03T23:51:12.476Z,9.95
2022-12-03T23:53:39.995Z,9.00
2022-12-03T23:56:15.952Z,8.63
2022-12-03T23:58:43.299Z,9.13
